sensor_id;sensor_type;location;lat;lon;timestamp;P1;durP1;ratioP1;P2;durP2;ratioP2
50651;SDS011;66928;52.086;5.240;2023-03-12T06:34:23;8.2;;;5.7;;
50651;SDS011;66928;52.086;5.240;2023-03-12T06:37:40;9.81;;;5.11;;
50651;SDS011;66928;52.086;5.240;2023-03-12T06:39:17;8.4;;;5.5;;
50651;SDS011;66928;52.086;5.240;2023-03-12T06:40:53;7.7;;;5.4;;
50651;SDS011;66928;52.086;5.240;2023-03-12T06:42:31;8.0;;;5.4;;
50651;SDS011;66928;52.086;5.240;2023-03-12T06:45:44;8.81;;;5.6;;
50651;SDS011;66928;52.086;5.240;2023-03-12T06:47:20;8.71;;;5.11;;
50651;SDS011;66928;52.086;5.240;2023-03-12T06:48:56;9.0;;;5.7;;
50651;SDS011;66928;52.086;5.240;2023-03-12T06:52:09;9.31;;;5.5;;
50651;SDS011;66928;52.086;5.240;2023-03-12T06:53:46;9.81;;;5.8;;
50651;SDS011;66928;52.086;5.240;2023-03-12T06:55:22;8.81;;;5.2;;
50651;SDS011;66928;52.086;5.240;2023-03-12T06:58:34;10.5;;;6.4;;
50651;SDS011;66928;52.086;5.240;2023-03-12T07:00:11;8.1;;;5.7;;
50651;SDS011;66928;52.086;5.240;2023-03-12T07:01:49;8.1;;;5.9;;
50651;SDS011;66928;52.086;5.240;2023-03-12T07:03:25;9.4;;;6.3;;
50651;SDS011;66928;52.086;5.240;2023-03-12T07:06:37;10.5;;;6.0;;
50651;SDS011;66928;52.086;5.240;2023-03-12T07:08:13;10.3;;;6.1;;
50651;SDS011;66928;52.086;5.240;2023-03-12T07:09:50;10.21;;;6.6;;
50651;SDS011;66928;52.086;5.240;2023-03-12T07:13:02;9.0;;;6.4;;
50651;SDS011;66928;52.086;5.240;2023-03-12T07:14:39;8.5;;;6.2;;
50651;SDS011;66928;52.086;5.240;2023-03-12T07:16:15;12.6;;;7.0;;
50651;SDS011;66928;52.086;5.240;2023-03-12T07:19:27;8.5;;;6.8;;
50651;SDS011;66928;52.086;5.240;2023-03-12T07:21:04;8.81;;;6.1;;
50651;SDS011;66928;52.086;5.240;2023-03-12T07:22:41;10.9;;;6.8;;
50651;SDS011;66928;52.086;5.240;2023-03-12T07:24:17;9.81;;;7.0;;
50651;SDS011;66928;52.086;5.240;2023-03-12T07:27:30;11.5;;;6.8;;
50651;SDS011;66928;52.086;5.240;2023-03-12T07:29:06;12.6;;;7.0;;
50651;SDS011;66928;52.086;5.240;2023-03-12T07:30:42;7.0;;;6.3;;
50651;SDS011;66928;52.086;5.240;2023-03-12T07:33:55;8.81;;;6.8;;
50651;SDS011;66928;52.086;5.240;2023-03-12T07:35:33;9.0;;;6.7;;
50651;SDS011;66928;52.086;5.240;2023-03-12T07:37:10;9.81;;;6.9;;
50651;SDS011;66928;52.086;5.240;2023-03-12T07:40:22;11.6;;;7.1;;
50651;SDS011;66928;52.086;5.240;2023-03-12T07:41:58;10.7;;;6.7;;
50651;SDS011;66928;52.086;5.240;2023-03-12T07:43:34;9.6;;;7.0;;
50651;SDS011;66928;52.086;5.240;2023-03-12T07:46:46;9.6;;;6.9;;
50651;SDS011;66928;52.086;5.240;2023-03-12T07:48:22;9.0;;;7.0;;
50651;SDS011;66928;52.086;5.240;2023-03-12T07:49:58;9.9;;;7.6;;
50651;SDS011;66928;52.086;5.240;2023-03-12T07:51:34;9.31;;;7.5;;
50651;SDS011;66928;52.086;5.240;2023-03-12T07:54:46;10.8;;;7.4;;
50651;SDS011;66928;52.086;5.240;2023-03-12T07:56:22;8.6;;;6.5;;
50651;SDS011;66928;52.086;5.240;2023-03-12T07:57:58;8.6;;;6.5;;
50651;SDS011;66928;52.086;5.240;2023-03-12T08:01:11;9.5;;;7.8;;
50651;SDS011;66928;52.086;5.240;2023-03-12T08:02:47;11.2;;;7.9;;
50651;SDS011;66928;52.086;5.240;2023-03-12T08:04:23;9.6;;;7.5;;
50651;SDS011;66928;52.086;5.240;2023-03-12T08:07:37;11.6;;;8.31;;
50651;SDS011;66928;52.086;5.240;2023-03-12T08:09:14;11.5;;;7.8;;
50651;SDS011;66928;52.086;5.240;2023-03-12T08:10:51;10.21;;;8.2;;
50651;SDS011;66928;52.086;5.240;2023-03-12T08:12:28;10.5;;;8.31;;
50651;SDS011;66928;52.086;5.240;2023-03-12T08:15:42;10.8;;;8.2;;
50651;SDS011;66928;52.086;5.240;2023-03-12T08:17:19;11.7;;;8.81;;
50651;SDS011;66928;52.086;5.240;2023-03-12T08:18:56;11.2;;;8.31;;
50651;SDS011;66928;52.086;5.240;2023-03-12T08:22:10;11.2;;;8.6;;
50651;SDS011;66928;52.086;5.240;2023-03-12T08:23:47;10.3;;;8.71;;
50651;SDS011;66928;52.086;5.240;2023-03-12T08:25:24;11.6;;;9.81;;
50651;SDS011;66928;52.086;5.240;2023-03-12T08:28:37;11.1;;;9.4;;
50651;SDS011;66928;52.086;5.240;2023-03-12T08:30:13;13.5;;;9.5;;
50651;SDS011;66928;52.086;5.240;2023-03-12T08:31:50;10.6;;;9.0;;
50651;SDS011;66928;52.086;5.240;2023-03-12T08:33:28;12.0;;;9.6;;
50651;SDS011;66928;52.086;5.240;2023-03-12T08:36:41;10.8;;;9.71;;
50651;SDS011;66928;52.086;5.240;2023-03-12T08:38:18;12.8;;;10.0;;
50651;SDS011;66928;52.086;5.240;2023-03-12T08:39:55;10.9;;;9.81;;
50651;SDS011;66928;52.086;5.240;2023-03-12T08:43:07;11.5;;;10.3;;
50651;SDS011;66928;52.086;5.240;2023-03-12T08:44:44;12.8;;;11.4;;
50651;SDS011;66928;52.086;5.240;2023-03-12T08:46:20;12.8;;;10.9;;
50651;SDS011;66928;52.086;5.240;2023-03-12T08:47:57;12.1;;;10.8;;
50651;SDS011;66928;52.086;5.240;2023-03-12T08:51:09;14.3;;;11.7;;
50651;SDS011;66928;52.086;5.240;2023-03-12T08:52:45;12.6;;;11.4;;
50651;SDS011;66928;52.086;5.240;2023-03-12T08:54:23;11.4;;;10.0;;
50651;SDS011;66928;52.086;5.240;2023-03-12T08:57:36;12.2;;;10.9;;
50651;SDS011;66928;52.086;5.240;2023-03-12T08:59:13;14.9;;;12.7;;
50651;SDS011;66928;52.086;5.240;2023-03-12T09:00:49;14.9;;;11.8;;
50651;SDS011;66928;52.086;5.240;2023-03-12T09:04:03;13.8;;;12.4;;
50651;SDS011;66928;52.086;5.240;2023-03-12T09:05:40;12.4;;;11.1;;
50651;SDS011;66928;52.086;5.240;2023-03-12T09:07:17;15.8;;;12.0;;
50651;SDS011;66928;52.086;5.240;2023-03-12T09:08:53;13.8;;;12.3;;
50651;SDS011;66928;52.086;5.240;2023-03-12T09:12:05;14.0;;;12.1;;
50651;SDS011;66928;52.086;5.240;2023-03-12T09:13:42;17.8;;;14.6;;
50651;SDS011;66928;52.086;5.240;2023-03-12T09:15:19;16.0;;;13.5;;
50651;SDS011;66928;52.086;5.240;2023-03-12T09:18:33;15.8;;;13.4;;
50651;SDS011;66928;52.086;5.240;2023-03-12T09:20:10;15.3;;;13.4;;
50651;SDS011;66928;52.086;5.240;2023-03-12T09:21:47;16.3;;;13.7;;
50651;SDS011;66928;52.086;5.240;2023-03-12T09:25:02;17.0;;;13.7;;
50651;SDS011;66928;52.086;5.240;2023-03-12T09:26:38;15.9;;;14.0;;
50651;SDS011;66928;52.086;5.240;2023-03-12T09:28:15;19.11;;;14.7;;
50651;SDS011;66928;52.086;5.240;2023-03-12T09:29:52;16.7;;;14.9;;
50651;SDS011;66928;52.086;5.240;2023-03-12T09:33:05;19.11;;;14.9;;
50651;SDS011;66928;52.086;5.240;2023-03-12T09:34:42;20.5;;;16.2;;
50651;SDS011;66928;52.086;5.240;2023-03-12T09:36:19;18.0;;;16.11;;
50651;SDS011;66928;52.086;5.240;2023-03-12T09:39:32;19.8;;;16.8;;
50651;SDS011;66928;52.086;5.240;2023-03-12T09:41:14;18.8;;;16.2;;
50651;SDS011;66928;52.086;5.240;2023-03-12T09:42:56;22.3;;;17.7;;
50651;SDS011;66928;52.086;5.240;2023-03-12T09:44:34;20.0;;;17.2;;
50651;SDS011;66928;52.086;5.240;2023-03-12T09:48:00;21.4;;;17.3;;
50651;SDS011;66928;52.086;5.240;2023-03-12T09:49:40;20.7;;;17.8;;
50651;SDS011;66928;52.086;5.240;2023-03-12T09:51:21;22.9;;;18.2;;
50651;SDS011;66928;52.086;5.240;2023-03-12T09:53:03;21.9;;;19.3;;
50651;SDS011;66928;52.086;5.240;2023-03-12T09:56:34;21.4;;;18.0;;
50651;SDS011;66928;52.086;5.240;2023-03-12T09:58:11;21.7;;;18.0;;
50651;SDS011;66928;52.086;5.240;2023-03-12T09:59:52;23.4;;;18.3;;
50651;SDS011;66928;52.086;5.240;2023-03-12T10:01:34;20.8;;;18.61;;
50651;SDS011;66928;52.086;5.240;2023-03-12T10:05:08;22.1;;;18.8;;
50651;SDS011;66928;52.086;5.240;2023-03-12T10:06:51;21.4;;;19.11;;
50651;SDS011;66928;52.086;5.240;2023-03-12T10:08:38;22.8;;;20.0;;
50651;SDS011;66928;52.086;5.240;2023-03-12T10:10:31;23.3;;;20.3;;
50651;SDS011;66928;52.086;5.240;2023-03-12T10:12:23;23.3;;;19.61;;
50651;SDS011;66928;52.086;5.240;2023-03-12T10:14:14;23.9;;;19.91;;
50651;SDS011;66928;52.086;5.240;2023-03-12T10:16:02;22.1;;;19.7;;
50651;SDS011;66928;52.086;5.240;2023-03-12T10:19:43;25.1;;;20.8;;
50651;SDS011;66928;52.086;5.240;2023-03-12T10:21:34;24.6;;;20.2;;
50651;SDS011;66928;52.086;5.240;2023-03-12T10:23:21;24.6;;;21.0;;
50651;SDS011;66928;52.086;5.240;2023-03-12T10:25:12;24.4;;;19.91;;
50651;SDS011;66928;52.086;5.240;2023-03-12T10:26:57;21.5;;;19.3;;
50651;SDS011;66928;52.086;5.240;2023-03-12T10:28:35;19.8;;;17.7;;
50651;SDS011;66928;52.086;5.240;2023-03-12T10:31:59;21.5;;;18.3;;
50651;SDS011;66928;52.086;5.240;2023-03-12T10:33:41;19.61;;;17.5;;
50651;SDS011;66928;52.086;5.240;2023-03-12T10:35:23;20.3;;;16.9;;
50651;SDS011;66928;52.086;5.240;2023-03-12T10:37:04;20.2;;;17.2;;
50651;SDS011;66928;52.086;5.240;2023-03-12T10:38:54;19.61;;;15.4;;
50651;SDS011;66928;52.086;5.240;2023-03-12T10:42:12;20.11;;;15.6;;
50651;SDS011;66928;52.086;5.240;2023-03-12T10:43:51;17.7;;;14.9;;
50651;SDS011;66928;52.086;5.240;2023-03-12T10:45:30;18.5;;;14.7;;
50651;SDS011;66928;52.086;5.240;2023-03-12T10:47:17;18.41;;;13.7;;
50651;SDS011;66928;52.086;5.240;2023-03-12T10:51:13;20.11;;;13.1;;
50651;SDS011;66928;52.086;5.240;2023-03-12T10:52:51;18.61;;;13.8;;
50651;SDS011;66928;52.086;5.240;2023-03-12T10:54:47;19.8;;;12.8;;
50651;SDS011;66928;52.086;5.240;2023-03-12T10:56:25;20.6;;;13.4;;
50651;SDS011;66928;52.086;5.240;2023-03-12T10:58:01;18.8;;;12.5;;
50651;SDS011;66928;52.086;5.240;2023-03-12T11:01:19;18.7;;;12.0;;
50651;SDS011;66928;52.086;5.240;2023-03-12T11:02:58;21.3;;;11.9;;
50651;SDS011;66928;52.086;5.240;2023-03-12T11:04:37;21.4;;;12.6;;
50651;SDS011;66928;52.086;5.240;2023-03-12T11:06:19;19.91;;;11.9;;
50651;SDS011;66928;52.086;5.240;2023-03-12T11:09:36;22.2;;;11.7;;
50651;SDS011;66928;52.086;5.240;2023-03-12T11:11:13;21.0;;;11.4;;
50651;SDS011;66928;52.086;5.240;2023-03-12T11:13:27;24.2;;;11.3;;
50651;SDS011;66928;52.086;5.240;2023-03-12T11:15:22;23.1;;;11.2;;
50651;SDS011;66928;52.086;5.240;2023-03-12T11:17:18;27.3;;;11.0;;
50651;SDS011;66928;52.086;5.240;2023-03-12T11:18:56;23.3;;;10.7;;
50651;SDS011;66928;52.086;5.240;2023-03-12T11:22:11;23.3;;;10.6;;
50651;SDS011;66928;52.086;5.240;2023-03-12T11:24:07;22.7;;;10.21;;
50651;SDS011;66928;52.086;5.240;2023-03-12T11:25:49;21.8;;;9.81;;
50651;SDS011;66928;52.086;5.240;2023-03-12T11:27:31;26.8;;;10.6;;
50651;SDS011;66928;52.086;5.240;2023-03-12T11:29:17;25.7;;;9.71;;
50651;SDS011;66928;52.086;5.240;2023-03-12T11:32:44;28.3;;;10.21;;
50651;SDS011;66928;52.086;5.240;2023-03-12T11:34:23;26.1;;;9.71;;
50651;SDS011;66928;52.086;5.240;2023-03-12T11:36:07;25.0;;;9.4;;
50651;SDS011;66928;52.086;5.240;2023-03-12T11:37:59;22.0;;;8.71;;
50651;SDS011;66928;52.086;5.240;2023-03-12T11:39:54;25.3;;;9.31;;
50651;SDS011;66928;52.086;5.240;2023-03-12T11:41:45;27.7;;;9.1;;
50651;SDS011;66928;52.086;5.240;2023-03-12T11:45:31;23.0;;;8.71;;
50651;SDS011;66928;52.086;5.240;2023-03-12T11:47:22;25.0;;;8.9;;
50651;SDS011;66928;52.086;5.240;2023-03-12T11:49:15;25.5;;;8.81;;
50651;SDS011;66928;52.086;5.240;2023-03-12T11:51:07;26.4;;;9.31;;
50651;SDS011;66928;52.086;5.240;2023-03-12T11:52:59;23.4;;;9.1;;
50651;SDS011;66928;52.086;5.240;2023-03-12T11:55:01;23.9;;;8.81;;
50651;SDS011;66928;52.086;5.240;2023-03-12T11:57:16;21.6;;;9.21;;
50651;SDS011;66928;52.086;5.240;2023-03-12T11:59:09;22.6;;;8.71;;
50651;SDS011;66928;52.086;5.240;2023-03-12T12:01:15;23.1;;;8.6;;
50651;SDS011;66928;52.086;5.240;2023-03-12T12:03:08;21.7;;;8.5;;
50651;SDS011;66928;52.086;5.240;2023-03-12T12:06:09;20.6;;;7.6;;
50651;SDS011;66928;52.086;5.240;2023-03-12T12:08:01;19.61;;;8.4;;
50651;SDS011;66928;52.086;5.240;2023-03-12T12:09:58;19.7;;;7.3;;
50651;SDS011;66928;52.086;5.240;2023-03-12T12:11:48;23.5;;;8.2;;
50651;SDS011;66928;52.086;5.240;2023-03-12T12:13:39;23.3;;;8.0;;
50651;SDS011;66928;52.086;5.240;2023-03-12T12:15:30;22.6;;;8.2;;
50651;SDS011;66928;52.086;5.240;2023-03-12T12:17:16;27.7;;;9.21;;
50651;SDS011;66928;52.086;5.240;2023-03-12T12:20:59;25.8;;;8.81;;
50651;SDS011;66928;52.086;5.240;2023-03-12T12:22:45;25.2;;;8.4;;
50651;SDS011;66928;52.086;5.240;2023-03-12T12:24:37;24.8;;;8.2;;
50651;SDS011;66928;52.086;5.240;2023-03-12T12:26:26;30.1;;;9.0;;
50651;SDS011;66928;52.086;5.240;2023-03-12T12:28:23;24.9;;;8.4;;
50651;SDS011;66928;52.086;5.240;2023-03-12T12:30:17;26.3;;;8.1;;
50651;SDS011;66928;52.086;5.240;2023-03-12T12:32:03;24.7;;;8.0;;
50651;SDS011;66928;52.086;5.240;2023-03-12T12:35:45;30.1;;;8.81;;
50651;SDS011;66928;52.086;5.240;2023-03-12T12:37:23;30.3;;;8.6;;
50651;SDS011;66928;52.086;5.240;2023-03-12T12:39:10;28.2;;;8.5;;
50651;SDS011;66928;52.086;5.240;2023-03-12T12:40:52;24.6;;;8.2;;
50651;SDS011;66928;52.086;5.240;2023-03-12T12:42:35;28.6;;;8.81;;
50651;SDS011;66928;52.086;5.240;2023-03-12T12:44:25;32.0;;;8.9;;
50651;SDS011;66928;52.086;5.240;2023-03-12T12:47:50;28.6;;;9.0;;
50651;SDS011;66928;52.086;5.240;2023-03-12T12:49:35;29.4;;;8.9;;
50651;SDS011;66928;52.086;5.240;2023-03-12T12:51:19;28.9;;;8.5;;
50651;SDS011;66928;52.086;5.240;2023-03-12T12:53:04;28.9;;;8.6;;
50651;SDS011;66928;52.086;5.240;2023-03-12T12:54:55;29.7;;;9.1;;
50651;SDS011;66928;52.086;5.240;2023-03-12T12:58:26;27.7;;;8.81;;
50651;SDS011;66928;52.086;5.240;2023-03-12T13:00:51;32.4;;;9.1;;
50651;SDS011;66928;52.086;5.240;2023-03-12T13:02:31;32.4;;;8.71;;
50651;SDS011;66928;52.086;5.240;2023-03-12T13:04:12;28.2;;;8.5;;
50651;SDS011;66928;52.086;5.240;2023-03-12T13:05:57;32.6;;;9.21;;
50651;SDS011;66928;52.086;5.240;2023-03-12T13:07:35;30.8;;;9.0;;
50651;SDS011;66928;52.086;5.240;2023-03-12T13:10:50;33.1;;;9.4;;
50651;SDS011;66928;52.086;5.240;2023-03-12T13:12:32;34.4;;;9.5;;
50651;SDS011;66928;52.086;5.240;2023-03-12T13:14:19;38.0;;;9.71;;
50651;SDS011;66928;52.086;5.240;2023-03-12T13:16:28;25.6;;;8.71;;
50651;SDS011;66928;52.086;5.240;2023-03-12T13:18:16;29.4;;;9.31;;
50651;SDS011;66928;52.086;5.240;2023-03-12T13:19:58;34.1;;;9.6;;
50651;SDS011;66928;52.086;5.240;2023-03-12T13:23:38;33.21;;;9.31;;
50651;SDS011;66928;52.086;5.240;2023-03-12T13:25:29;31.6;;;9.1;;
50651;SDS011;66928;52.086;5.240;2023-03-12T13:27:18;32.1;;;9.21;;
50651;SDS011;66928;52.086;5.240;2023-03-12T13:29:11;35.5;;;9.71;;
50651;SDS011;66928;52.086;5.240;2023-03-12T13:30:54;31.7;;;9.21;;
50651;SDS011;66928;52.086;5.240;2023-03-12T13:32:37;33.71;;;9.31;;
50651;SDS011;66928;52.086;5.240;2023-03-12T13:34:42;31.0;;;8.4;;
50651;SDS011;66928;52.086;5.240;2023-03-12T13:38:01;30.5;;;8.9;;
50651;SDS011;66928;52.086;5.240;2023-03-12T13:39:40;25.9;;;8.81;;
50651;SDS011;66928;52.086;5.240;2023-03-12T13:41:28;31.1;;;9.1;;
50651;SDS011;66928;52.086;5.240;2023-03-12T13:43:10;31.0;;;8.71;;
50651;SDS011;66928;52.086;5.240;2023-03-12T13:46:28;31.5;;;8.9;;
50651;SDS011;66928;52.086;5.240;2023-03-12T13:48:15;31.4;;;8.81;;
50651;SDS011;66928;52.086;5.240;2023-03-12T13:49:54;30.3;;;8.9;;
50651;SDS011;66928;52.086;5.240;2023-03-12T13:51:37;31.7;;;8.81;;
50651;SDS011;66928;52.086;5.240;2023-03-12T13:55:01;28.2;;;8.5;;
50651;SDS011;66928;52.086;5.240;2023-03-12T13:56:55;28.2;;;8.2;;
50651;SDS011;66928;52.086;5.240;2023-03-12T13:58:39;31.5;;;8.6;;
50651;SDS011;66928;52.086;5.240;2023-03-12T14:00:23;31.5;;;8.71;;
50651;SDS011;66928;52.086;5.240;2023-03-12T14:02:04;28.5;;;8.9;;
50651;SDS011;66928;52.086;5.240;2023-03-12T14:03:51;29.9;;;8.6;;
50651;SDS011;66928;52.086;5.240;2023-03-12T14:07:27;30.0;;;8.2;;
50651;SDS011;66928;52.086;5.240;2023-03-12T14:09:23;24.9;;;7.5;;
50651;SDS011;66928;52.086;5.240;2023-03-12T14:11:20;27.6;;;7.8;;
50651;SDS011;66928;52.086;5.240;2023-03-12T14:13:15;27.6;;;8.31;;
50651;SDS011;66928;52.086;5.240;2023-03-12T14:15:07;27.0;;;8.0;;
50651;SDS011;66928;52.086;5.240;2023-03-12T14:16:58;27.0;;;8.2;;
50651;SDS011;66928;52.086;5.240;2023-03-12T14:18:37;26.4;;;7.5;;
50651;SDS011;66928;52.086;5.240;2023-03-12T14:21:59;23.6;;;7.4;;
50651;SDS011;66928;52.086;5.240;2023-03-12T14:23:43;26.6;;;8.0;;
50651;SDS011;66928;52.086;5.240;2023-03-12T14:25:28;25.2;;;7.6;;
50651;SDS011;66928;52.086;5.240;2023-03-12T14:27:13;25.2;;;7.2;;
50651;SDS011;66928;52.086;5.240;2023-03-12T14:30:40;24.7;;;7.0;;
50651;SDS011;66928;52.086;5.240;2023-03-12T14:32:25;25.2;;;6.8;;
50651;SDS011;66928;52.086;5.240;2023-03-12T14:34:07;24.5;;;7.0;;
50651;SDS011;66928;52.086;5.240;2023-03-12T14:35:52;22.5;;;6.8;;
50651;SDS011;66928;52.086;5.240;2023-03-12T14:37:35;23.0;;;6.8;;
50651;SDS011;66928;52.086;5.240;2023-03-12T14:41:04;25.4;;;7.0;;
50651;SDS011;66928;52.086;5.240;2023-03-12T14:42:45;28.2;;;7.6;;
50651;SDS011;66928;52.086;5.240;2023-03-12T14:44:22;25.1;;;7.8;;
50651;SDS011;66928;52.086;5.240;2023-03-12T14:46:01;27.1;;;7.4;;
50651;SDS011;66928;52.086;5.240;2023-03-12T14:49:18;27.2;;;7.5;;
50651;SDS011;66928;52.086;5.240;2023-03-12T14:50:56;26.9;;;7.6;;
50651;SDS011;66928;52.086;5.240;2023-03-12T14:52:33;27.9;;;8.5;;
50651;SDS011;66928;52.086;5.240;2023-03-12T14:54:14;26.4;;;7.7;;
50651;SDS011;66928;52.086;5.240;2023-03-12T14:57:40;28.5;;;8.31;;
50651;SDS011;66928;52.086;5.240;2023-03-12T14:59:19;27.2;;;7.8;;
50651;SDS011;66928;52.086;5.240;2023-03-12T15:01:04;24.4;;;7.6;;
50651;SDS011;66928;52.086;5.240;2023-03-12T15:02:47;28.4;;;8.0;;
50651;SDS011;66928;52.086;5.240;2023-03-12T15:06:05;25.4;;;8.0;;
50651;SDS011;66928;52.086;5.240;2023-03-12T15:07:50;24.8;;;7.6;;
50651;SDS011;66928;52.086;5.240;2023-03-12T15:09:39;27.5;;;7.5;;
50651;SDS011;66928;52.086;5.240;2023-03-12T15:11:19;26.2;;;7.2;;
50651;SDS011;66928;52.086;5.240;2023-03-12T15:12:59;24.5;;;7.0;;
50651;SDS011;66928;52.086;5.240;2023-03-12T15:16:17;27.9;;;7.5;;
50651;SDS011;66928;52.086;5.240;2023-03-12T15:17:55;24.7;;;7.8;;
50651;SDS011;66928;52.086;5.240;2023-03-12T15:19:34;26.3;;;8.0;;
50651;SDS011;66928;52.086;5.240;2023-03-12T15:22:50;26.4;;;7.9;;
50651;SDS011;66928;52.086;5.240;2023-03-12T15:24:28;28.3;;;8.2;;
50651;SDS011;66928;52.086;5.240;2023-03-12T15:26:12;34.5;;;8.4;;
50651;SDS011;66928;52.086;5.240;2023-03-12T15:28:03;31.0;;;7.5;;
50651;SDS011;66928;52.086;5.240;2023-03-12T15:29:43;24.1;;;7.6;;
50651;SDS011;66928;52.086;5.240;2023-03-12T15:33:11;26.0;;;7.7;;
50651;SDS011;66928;52.086;5.240;2023-03-12T15:34:58;24.2;;;7.5;;
50651;SDS011;66928;52.086;5.240;2023-03-12T15:36:35;25.8;;;7.6;;
50651;SDS011;66928;52.086;5.240;2023-03-12T15:38:22;24.1;;;6.9;;
50651;SDS011;66928;52.086;5.240;2023-03-12T15:41:40;24.4;;;7.2;;
50651;SDS011;66928;52.086;5.240;2023-03-12T15:43:19;28.1;;;7.7;;
50651;SDS011;66928;52.086;5.240;2023-03-12T15:44:59;23.1;;;7.8;;
50651;SDS011;66928;52.086;5.240;2023-03-12T15:46:38;26.8;;;7.7;;
50651;SDS011;66928;52.086;5.240;2023-03-12T15:50:04;26.7;;;7.5;;
50651;SDS011;66928;52.086;5.240;2023-03-12T15:51:56;29.2;;;8.0;;
50651;SDS011;66928;52.086;5.240;2023-03-12T15:53:37;24.9;;;7.9;;
50651;SDS011;66928;52.086;5.240;2023-03-12T15:55:20;28.3;;;8.2;;
50651;SDS011;66928;52.086;5.240;2023-03-12T15:57:10;25.7;;;8.2;;
50651;SDS011;66928;52.086;5.240;2023-03-12T15:59:00;26.8;;;8.0;;
50651;SDS011;66928;52.086;5.240;2023-03-12T16:02:32;24.8;;;7.7;;
50651;SDS011;66928;52.086;5.240;2023-03-12T16:04:11;28.8;;;8.1;;
50651;SDS011;66928;52.086;5.240;2023-03-12T16:05:48;27.5;;;8.1;;
50651;SDS011;66928;52.086;5.240;2023-03-12T16:07:26;29.0;;;8.0;;
50651;SDS011;66928;52.086;5.240;2023-03-12T16:10:39;30.1;;;8.31;;
50651;SDS011;66928;52.086;5.240;2023-03-12T16:12:17;28.4;;;8.31;;
50651;SDS011;66928;52.086;5.240;2023-03-12T16:13:55;28.4;;;8.31;;
50651;SDS011;66928;52.086;5.240;2023-03-12T16:17:14;32.6;;;8.71;;
50651;SDS011;66928;52.086;5.240;2023-03-12T16:18:58;31.1;;;8.81;;
50651;SDS011;66928;52.086;5.240;2023-03-12T16:20:35;29.6;;;8.5;;
50651;SDS011;66928;52.086;5.240;2023-03-12T16:22:11;27.3;;;8.1;;
50651;SDS011;66928;52.086;5.240;2023-03-12T16:25:23;28.2;;;8.1;;
50651;SDS011;66928;52.086;5.240;2023-03-12T16:27:00;28.8;;;8.81;;
50651;SDS011;66928;52.086;5.240;2023-03-12T16:28:38;31.7;;;8.6;;
50651;SDS011;66928;52.086;5.240;2023-03-12T16:31:55;29.8;;;8.9;;
50651;SDS011;66928;52.086;5.240;2023-03-12T16:33:32;31.3;;;8.9;;
50651;SDS011;66928;52.086;5.240;2023-03-12T16:35:10;31.8;;;8.4;;
50651;SDS011;66928;52.086;5.240;2023-03-12T16:36:48;33.8;;;9.1;;
50651;SDS011;66928;52.086;5.240;2023-03-12T16:40:03;30.9;;;8.5;;
50651;SDS011;66928;52.086;5.240;2023-03-12T16:41:40;31.1;;;9.71;;
50651;SDS011;66928;52.086;5.240;2023-03-12T16:43:17;32.0;;;9.71;;
50651;SDS011;66928;52.086;5.240;2023-03-12T16:44:56;30.8;;;9.31;;
50651;SDS011;66928;52.086;5.240;2023-03-12T16:48:12;31.2;;;9.0;;
50651;SDS011;66928;52.086;5.240;2023-03-12T16:49:50;30.9;;;10.0;;
50651;SDS011;66928;52.086;5.240;2023-03-12T16:51:27;31.9;;;10.21;;
50651;SDS011;66928;52.086;5.240;2023-03-12T16:54:40;34.81;;;9.81;;
50651;SDS011;66928;52.086;5.240;2023-03-12T16:56:17;37.4;;;9.6;;
50651;SDS011;66928;52.086;5.240;2023-03-12T16:57:56;32.3;;;9.31;;
50651;SDS011;66928;52.086;5.240;2023-03-12T16:59:35;35.71;;;9.5;;
50651;SDS011;66928;52.086;5.240;2023-03-12T17:02:52;31.6;;;8.9;;
50651;SDS011;66928;52.086;5.240;2023-03-12T17:04:29;32.9;;;9.31;;
50651;SDS011;66928;52.086;5.240;2023-03-12T17:06:06;30.0;;;9.4;;
50651;SDS011;66928;52.086;5.240;2023-03-12T17:11:05;29.3;;;9.0;;
50651;SDS011;66928;52.086;5.240;2023-03-12T17:12:50;31.0;;;9.4;;
50651;SDS011;66928;52.086;5.240;2023-03-12T17:14:28;33.1;;;9.31;;
50651;SDS011;66928;52.086;5.240;2023-03-12T17:17:46;32.9;;;9.5;;
50651;SDS011;66928;52.086;5.240;2023-03-12T17:19:23;33.9;;;9.0;;
50651;SDS011;66928;52.086;5.240;2023-03-12T17:21:01;29.5;;;8.4;;
50651;SDS011;66928;52.086;5.240;2023-03-12T17:22:37;29.1;;;8.1;;
50651;SDS011;66928;52.086;5.240;2023-03-12T17:25:50;27.9;;;8.6;;
50651;SDS011;66928;52.086;5.240;2023-03-12T17:27:27;27.6;;;8.1;;
50651;SDS011;66928;52.086;5.240;2023-03-12T17:29:04;31.0;;;8.1;;
50651;SDS011;66928;52.086;5.240;2023-03-12T17:32:19;31.4;;;8.1;;
50651;SDS011;66928;52.086;5.240;2023-03-12T17:33:56;28.9;;;7.8;;
50651;SDS011;66928;52.086;5.240;2023-03-12T17:35:32;27.0;;;7.7;;
50651;SDS011;66928;52.086;5.240;2023-03-12T17:38:45;26.2;;;7.2;;
50651;SDS011;66928;52.086;5.240;2023-03-12T17:40:22;23.2;;;7.2;;
50651;SDS011;66928;52.086;5.240;2023-03-12T17:41:59;24.1;;;7.9;;
50651;SDS011;66928;52.086;5.240;2023-03-12T17:43:36;26.9;;;7.9;;
50651;SDS011;66928;52.086;5.240;2023-03-12T17:46:48;27.0;;;7.6;;
50651;SDS011;66928;52.086;5.240;2023-03-12T17:48:24;24.1;;;7.3;;
50651;SDS011;66928;52.086;5.240;2023-03-12T17:50:00;21.5;;;7.1;;
50651;SDS011;66928;52.086;5.240;2023-03-12T17:53:14;22.3;;;6.7;;
50651;SDS011;66928;52.086;5.240;2023-03-12T17:54:51;21.8;;;6.9;;
50651;SDS011;66928;52.086;5.240;2023-03-12T17:56:28;20.0;;;6.0;;
50651;SDS011;66928;52.086;5.240;2023-03-12T17:59:41;24.0;;;6.8;;
50651;SDS011;66928;52.086;5.240;2023-03-12T18:01:17;21.9;;;7.2;;
50651;SDS011;66928;52.086;5.240;2023-03-12T18:02:54;18.5;;;5.9;;
50651;SDS011;66928;52.086;5.240;2023-03-12T18:04:30;18.91;;;5.9;;
50651;SDS011;66928;52.086;5.240;2023-03-12T18:07:43;21.5;;;5.5;;
50651;SDS011;66928;52.086;5.240;2023-03-12T18:09:22;21.9;;;5.9;;
50651;SDS011;66928;52.086;5.240;2023-03-12T18:10:59;17.8;;;5.6;;
50651;SDS011;66928;52.086;5.240;2023-03-12T18:14:13;15.6;;;5.11;;
50651;SDS011;66928;52.086;5.240;2023-03-12T18:15:50;13.4;;;4.41;;
50651;SDS011;66928;52.086;5.240;2023-03-12T18:17:27;14.2;;;4.61;;
50651;SDS011;66928;52.086;5.240;2023-03-12T18:19:04;13.0;;;4.3;;
50651;SDS011;66928;52.086;5.240;2023-03-12T18:22:19;13.7;;;4.5;;
50651;SDS011;66928;52.086;5.240;2023-03-12T18:23:55;11.8;;;4.0;;
50651;SDS011;66928;52.086;5.240;2023-03-12T18:25:32;12.0;;;4.1;;
50651;SDS011;66928;52.086;5.240;2023-03-12T18:28:46;11.7;;;4.0;;
50651;SDS011;66928;52.086;5.240;2023-03-12T18:30:24;12.4;;;3.9;;
50651;SDS011;66928;52.086;5.240;2023-03-12T18:32:01;10.9;;;3.9;;
50651;SDS011;66928;52.086;5.240;2023-03-12T18:35:15;9.71;;;3.4;;
50651;SDS011;66928;52.086;5.240;2023-03-12T18:36:51;11.7;;;3.7;;
50651;SDS011;66928;52.086;5.240;2023-03-12T18:38:29;10.8;;;3.7;;
50651;SDS011;66928;52.086;5.240;2023-03-12T18:40:07;11.9;;;3.7;;
50651;SDS011;66928;52.086;5.240;2023-03-12T18:43:20;11.5;;;3.4;;
50651;SDS011;66928;52.086;5.240;2023-03-12T18:44:56;12.8;;;3.6;;
50651;SDS011;66928;52.086;5.240;2023-03-12T18:46:33;13.1;;;3.8;;
50651;SDS011;66928;52.086;5.240;2023-03-12T18:49:45;8.71;;;3.3;;
50651;SDS011;66928;52.086;5.240;2023-03-12T18:51:21;14.2;;;3.8;;
50651;SDS011;66928;52.086;5.240;2023-03-12T18:52:57;12.6;;;3.8;;
50651;SDS011;66928;52.086;5.240;2023-03-12T18:56:09;14.2;;;3.9;;
50651;SDS011;66928;52.086;5.240;2023-03-12T18:57:47;11.5;;;3.9;;
50651;SDS011;66928;52.086;5.240;2023-03-12T18:59:23;13.2;;;3.8;;
50651;SDS011;66928;52.086;5.240;2023-03-12T19:01:00;13.3;;;3.9;;
50651;SDS011;66928;52.086;5.240;2023-03-12T19:04:13;14.7;;;4.0;;
50651;SDS011;66928;52.086;5.240;2023-03-12T19:06:01;12.2;;;3.4;;
50651;SDS011;66928;52.086;5.240;2023-03-12T19:07:38;13.3;;;3.9;;
50651;SDS011;66928;52.086;5.240;2023-03-12T19:09:16;11.1;;;3.7;;
50651;SDS011;66928;52.086;5.240;2023-03-12T19:12:28;13.6;;;3.9;;
50651;SDS011;66928;52.086;5.240;2023-03-12T19:14:04;10.1;;;3.6;;
50651;SDS011;66928;52.086;5.240;2023-03-12T19:15:41;11.3;;;3.8;;
50651;SDS011;66928;52.086;5.240;2023-03-12T19:18:54;10.1;;;3.4;;